createdAt,value
2022-11-16T00:00:05.587Z,97565.88
2022-11-16T00:02:33.315Z,97549.75
2022-11-16T00:05:00.214Z,97549.66
2022-11-16T00:07:27.052Z,97547.22
2022-11-16T00:09:53.845Z,97545.97
2022-11-16T00:12:20.533Z,97549.84
2022-11-16T00:14:47.266Z,97549.19
2022-11-16T00:17:14.004Z,97522.53
2022-11-16T00:19:40.679Z,97540.78
2022-11-16T00:22:07.543Z,97541.84
2022-11-16T00:24:34.448Z,97526.13
2022-11-16T00:27:01.124Z,97534.03
2022-11-16T00:29:28.228Z,97534.13
2022-11-16T00:31:55.471Z,97517.41
2022-11-16T00:34:23.015Z,97522.38
2022-11-16T00:36:50.612Z,97508.75
2022-11-16T00:39:18.339Z,97531.59
2022-11-16T00:41:46.781Z,97533.47
2022-11-16T00:44:14.208Z,97522.22
2022-11-16T00:46:41.686Z,97517.69
2022-11-16T00:49:08.729Z,97509.72
2022-11-16T00:51:36.099Z,97515.59
2022-11-16T00:54:05.221Z,97499.06
2022-11-16T00:56:35.295Z,97518.03
2022-11-16T00:59:01.938Z,97515.41
2022-11-16T01:01:29.034Z,97509.31
2022-11-16T01:03:55.827Z,97512.91
2022-11-16T01:06:23.554Z,97509.50
2022-11-16T01:08:51.009Z,97509.72
2022-11-16T01:11:37.162Z,97506.25
2022-11-16T01:14:06.973Z,97497.50
2022-11-16T01:16:33.807Z,97496.66
2022-11-16T01:19:01.241Z,97490.56
2022-11-16T01:21:28.465Z,97483.78
2022-11-16T01:23:57.095Z,97486.53
2022-11-16T01:26:24.405Z,97480.53
2022-11-16T01:28:51.444Z,97486.97
2022-11-16T01:31:18.286Z,97483.56
2022-11-16T01:33:46.592Z,97475.56
2022-11-16T01:36:26.065Z,97478.31
2022-11-16T01:38:54.279Z,97470.44
2022-11-16T01:41:26.054Z,97462.63
2022-11-16T01:44:04.971Z,97470.06
2022-11-16T01:46:39.114Z,97464.25
2022-11-16T01:49:12.051Z,97458.25
2022-11-16T01:51:42.617Z,97457.19
2022-11-16T01:54:13.147Z,97461.63
2022-11-16T01:56:51.302Z,97452.97
2022-11-16T01:59:36.635Z,97464.47
2022-11-16T02:02:05.039Z,97458.38
2022-11-16T02:04:32.972Z,97456.78
2022-11-16T02:07:18.629Z,97445.22
2022-11-16T02:09:59.784Z,97433.94
2022-11-16T02:13:05.976Z,97433.75
2022-11-16T02:15:52.792Z,97431.13
2022-11-16T02:18:44.188Z,97417.88
2022-11-16T02:21:23.479Z,97420.38
2022-11-16T02:24:16.620Z,97421.34
2022-11-16T02:26:50.334Z,97413.34
2022-11-16T02:29:27.742Z,97409.25
2022-11-16T02:32:15.330Z,97426.06
2022-11-16T02:34:55.949Z,97410.50
2022-11-16T02:37:27.464Z,97405.13
2022-11-16T02:39:58.303Z,97404.28
2022-11-16T02:42:33.094Z,97412.16
2022-11-16T02:45:02.606Z,97396.41
2022-11-16T02:47:33.588Z,97398.28
2022-11-16T02:50:21.754Z,97399.53
2022-11-16T02:52:49.196Z,97392.34
2022-11-16T02:55:19.249Z,97376.78
2022-11-16T02:58:02.116Z,97387.63
2022-11-16T03:00:43.544Z,97387.53
2022-11-16T03:03:25.340Z,97380.69
2022-11-16T03:06:01.280Z,97376.50
2022-11-16T03:08:32.438Z,97370.19
2022-11-16T03:11:27.126Z,97370.78
2022-11-16T03:13:59.393Z,97379.28
2022-11-16T03:16:31.426Z,97371.69
2022-11-16T03:19:02.286Z,97371.59
2022-11-16T03:22:01.894Z,97380.31
2022-11-16T03:24:30.062Z,97372.34
2022-11-16T03:27:10.318Z,97366.25
2022-11-16T03:30:02.498Z,97378.22
2022-11-16T03:32:54.395Z,97374.66
2022-11-16T03:35:43.804Z,97372.03
2022-11-16T03:38:12.685Z,97349.47
2022-11-16T03:40:45.585Z,97364.06
2022-11-16T03:43:15.188Z,97347.00
2022-11-16T03:45:42.994Z,97349.41
2022-11-16T03:48:10.132Z,97354.59
2022-11-16T03:50:36.917Z,97347.66
2022-11-16T03:53:03.876Z,97348.28
2022-11-16T03:55:31.089Z,97339.66
2022-11-16T03:57:58.561Z,97336.19
2022-11-16T04:00:25.364Z,97336.94
2022-11-16T04:02:53.339Z,97333.34
2022-11-16T04:05:40.516Z,97330.94
2022-11-16T04:08:35.294Z,97339.56
2022-11-16T04:11:21.939Z,97331.13
2022-11-16T04:14:17.574Z,97335.84
2022-11-16T04:17:02.970Z,97339.81
2022-11-16T04:19:48.157Z,97337.00
2022-11-16T04:22:43.045Z,97317.03
2022-11-16T04:25:16.087Z,97327.13
2022-11-16T04:28:01.704Z,97326.19
2022-11-16T04:30:48.570Z,97321.88
2022-11-16T04:33:34.435Z,97320.09
2022-11-16T04:36:20.801Z,97312.28
2022-11-16T04:38:48.496Z,97313.88
2022-11-16T04:41:34.485Z,97306.38
2022-11-16T04:44:01.496Z,97302.53
2022-11-16T04:46:51.249Z,97311.63
2022-11-16T04:49:18.318Z,97309.53
2022-11-16T04:51:45.393Z,97309.47
2022-11-16T04:54:12.626Z,97300.63
2022-11-16T04:56:39.599Z,97292.56
2022-11-16T04:59:06.607Z,97287.97
2022-11-16T05:01:52.705Z,97301.53
2022-11-16T05:04:19.654Z,97296.06
2022-11-16T05:06:47.952Z,97300.19
2022-11-16T05:09:14.847Z,97287.47
2022-11-16T05:11:41.833Z,97300.28
2022-11-16T05:14:10.193Z,97302.06
2022-11-16T05:16:38.487Z,97292.72
2022-11-16T05:19:23.829Z,97299.66
2022-11-16T05:21:50.877Z,97291.97
2022-11-16T05:24:36.038Z,97283.25
2022-11-16T05:27:10.608Z,97281.88
2022-11-16T05:29:38.851Z,97289.78
2022-11-16T05:32:06.214Z,97283.06
2022-11-16T05:34:32.985Z,97255.91
2022-11-16T05:37:00.858Z,97279.38
2022-11-16T05:39:29.156Z,97283.69
2022-11-16T05:41:56.275Z,97277.47
2022-11-16T05:44:23.682Z,97274.00
2022-11-16T05:46:51.488Z,97271.28
2022-11-16T05:49:19.790Z,97263.28
2022-11-16T05:51:47.913Z,97258.03
2022-11-16T05:54:24.817Z,97259.75
2022-11-16T05:56:53.617Z,97245.13
2022-11-16T05:59:22.755Z,97241.66
2022-11-16T06:01:54.081Z,97250.00
2022-11-16T06:04:24.753Z,97253.44
2022-11-16T06:06:53.749Z,97253.00
2022-11-16T06:09:20.715Z,97246.63
2022-11-16T06:11:49.108Z,97244.00
2022-11-16T06:14:16.198Z,97250.91
2022-11-16T06:16:43.261Z,97251.75
2022-11-16T06:19:11.221Z,97247.38
2022-11-16T06:21:38.182Z,97249.88
2022-11-16T06:24:09.624Z,97249.13
2022-11-16T06:26:37.052Z,97246.50
2022-11-16T06:29:04.167Z,97252.41
2022-11-16T06:31:31.463Z,97251.66
2022-11-16T06:34:01.803Z,97254.69
2022-11-16T06:36:29.658Z,97256.53
2022-11-16T06:39:00.949Z,97257.91
2022-11-16T06:41:29.648Z,97238.91
2022-11-16T06:43:58.629Z,97240.19
2022-11-16T06:46:32.301Z,97238.06
2022-11-16T06:48:59.002Z,97241.56
2022-11-16T06:51:29.000Z,97250.28
2022-11-16T06:53:59.215Z,97246.63
2022-11-16T06:56:27.973Z,97239.34
2022-11-16T06:58:57.440Z,97238.94
2022-11-16T07:01:26.780Z,97239.59
2022-11-16T07:03:59.155Z,97234.34
2022-11-16T07:06:26.432Z,97243.16
2022-11-16T07:08:53.188Z,97246.53
2022-11-16T07:11:24.899Z,97238.56
2022-11-16T07:13:52.197Z,97237.38
2022-11-16T07:16:18.904Z,97235.38
2022-11-16T07:18:52.867Z,97237.81
2022-11-16T07:21:19.860Z,97225.63
2022-11-16T07:23:47.524Z,97231.09
2022-11-16T07:26:18.945Z,97238.78
2022-11-16T07:28:52.057Z,97239.81
2022-11-16T07:31:21.536Z,97246.88
2022-11-16T07:34:07.148Z,97244.34
2022-11-16T07:37:09.228Z,97249.59
2022-11-16T07:39:36.179Z,97234.88
2022-11-16T07:42:11.525Z,97230.75
2022-11-16T07:44:59.650Z,97226.69
2022-11-16T07:47:26.489Z,97226.69
2022-11-16T07:49:53.400Z,97230.66
2022-11-16T07:52:23.705Z,97235.19
2022-11-16T07:54:58.192Z,97216.16
2022-11-16T07:57:27.468Z,97223.31
2022-11-16T07:59:56.227Z,97215.84
2022-11-16T08:02:23.237Z,97203.97
2022-11-16T08:04:51.221Z,97212.88
2022-11-16T08:07:22.814Z,97202.81
2022-11-16T08:09:53.546Z,97197.75
2022-11-16T08:12:21.572Z,97202.19
2022-11-16T08:14:48.416Z,97208.78
2022-11-16T08:17:15.235Z,97212.69
2022-11-16T08:19:43.383Z,97205.00
2022-11-16T08:22:13.467Z,97198.91
2022-11-16T08:24:41.560Z,97198.78
2022-11-16T08:27:09.104Z,97201.75
2022-11-16T08:29:36.060Z,97209.53
2022-11-16T08:32:05.185Z,97185.03
2022-11-16T08:34:34.090Z,97213.72
2022-11-16T08:37:00.819Z,97207.84
2022-11-16T08:39:47.543Z,97201.09
2022-11-16T08:42:14.549Z,97204.25
2022-11-16T08:44:45.789Z,97201.97
2022-11-16T08:47:15.156Z,97199.94
2022-11-16T08:49:51.250Z,97205.84
2022-11-16T08:52:19.883Z,97210.25
2022-11-16T08:54:47.423Z,97202.66
2022-11-16T08:57:14.484Z,97196.03
2022-11-16T08:59:42.987Z,97211.19
2022-11-16T09:02:13.133Z,97198.66
2022-11-16T09:04:39.972Z,97208.53
2022-11-16T09:07:06.729Z,97204.41
2022-11-16T09:09:33.488Z,97198.63
2022-11-16T09:12:00.211Z,97221.53
2022-11-16T09:14:29.012Z,97208.22
2022-11-16T09:16:55.830Z,97212.59
2022-11-16T09:19:22.668Z,97204.69
2022-11-16T09:21:50.434Z,97210.34
2022-11-16T09:24:17.197Z,97206.47
2022-11-16T09:26:44.034Z,97221.19
2022-11-16T09:29:15.006Z,97240.59
2022-11-16T09:31:42.321Z,97237.13
2022-11-16T09:34:09.149Z,97217.41
2022-11-16T09:36:35.959Z,97229.59
2022-11-16T09:42:18.823Z,97232.84
2022-11-16T09:45:08.530Z,97224.84
2022-11-16T09:47:59.446Z,97229.59
2022-11-16T09:50:42.336Z,97220.97
2022-11-16T09:53:20.599Z,97210.09
2022-11-16T09:55:50.981Z,97219.25
2022-11-16T09:58:40.869Z,97205.59
2022-11-16T10:01:47.886Z,97192.09
2022-11-16T10:04:31.392Z,97197.38
2022-11-16T10:07:06.824Z,97193.66
2022-11-16T10:09:35.118Z,97219.53
2022-11-16T10:12:11.042Z,97199.63
2022-11-16T10:14:53.334Z,97192.13
2022-11-16T10:17:44.609Z,97189.63
2022-11-16T10:20:11.328Z,97181.72
2022-11-16T10:22:54.987Z,97185.94
2022-11-16T10:25:25.006Z,97200.69
2022-11-16T10:27:57.507Z,97196.00
2022-11-16T10:30:24.663Z,97194.44
2022-11-16T10:33:00.416Z,97190.97
2022-11-16T10:35:35.795Z,97191.44
2022-11-16T10:38:11.086Z,97182.81
2022-11-16T10:40:39.923Z,97174.41
2022-11-16T10:43:24.496Z,97181.00
2022-11-16T10:46:25.621Z,97177.66
2022-11-16T10:49:14.281Z,97184.34
2022-11-16T10:51:42.930Z,97173.22
2022-11-16T10:54:14.301Z,97161.38
2022-11-16T10:56:45.452Z,97184.97
2022-11-16T10:59:14.740Z,97183.06
2022-11-16T11:01:57.832Z,97182.91
2022-11-16T11:04:27.049Z,97176.47
2022-11-16T11:06:55.113Z,97177.88
2022-11-16T11:09:31.445Z,97180.91
2022-11-16T11:12:38.118Z,97178.97
2022-11-16T11:15:10.721Z,97171.53
2022-11-16T11:17:40.878Z,97161.59
2022-11-16T11:20:13.463Z,97172.75
2022-11-16T11:22:54.406Z,97174.16
2022-11-16T11:26:00.517Z,97166.88
2022-11-16T11:28:47.969Z,97168.06
2022-11-16T11:31:33.877Z,97171.78
2022-11-16T11:34:23.645Z,97173.44
2022-11-16T11:36:55.294Z,97180.88
2022-11-16T11:39:22.029Z,97169.72
2022-11-16T11:42:14.607Z,97167.34
2022-11-16T11:45:08.004Z,97177.88
2022-11-16T11:47:58.077Z,97169.50
2022-11-16T11:50:55.321Z,97171.19
2022-11-16T11:53:45.297Z,97167.81
2022-11-16T11:56:14.481Z,97169.13
2022-11-16T11:58:42.770Z,97161.56
2022-11-16T12:01:29.296Z,97174.28
2022-11-16T12:04:07.921Z,97164.69
2022-11-16T12:06:44.277Z,97157.38
2022-11-16T12:09:29.806Z,97160.75
2022-11-16T12:12:21.056Z,97159.53
2022-11-16T12:15:11.366Z,97160.41
2022-11-16T12:17:55.671Z,97150.94
2022-11-16T12:20:45.177Z,97154.88
2022-11-16T12:23:44.232Z,97163.03
2022-11-16T12:26:10.836Z,97161.47
2022-11-16T12:29:03.693Z,97162.41
2022-11-16T12:31:39.186Z,97158.84
2022-11-16T12:34:39.571Z,97151.50
2022-11-16T12:37:20.353Z,97149.00
2022-11-16T12:40:08.354Z,97153.06
2022-11-16T12:42:59.290Z,97156.69
2022-11-16T12:45:44.118Z,97159.44
2022-11-16T12:48:19.551Z,97164.59
2022-11-16T12:51:04.400Z,97157.38
2022-11-16T12:53:49.112Z,97163.97
2022-11-16T12:56:49.288Z,97157.38
2022-11-16T12:59:37.569Z,97170.94
2022-11-16T13:02:17.938Z,97162.91
2022-11-16T13:04:58.499Z,97156.44
2022-11-16T13:07:31.305Z,97158.84
2022-11-16T13:10:06.524Z,97159.41
2022-11-16T13:12:35.656Z,97168.06
2022-11-16T13:15:03.480Z,97178.50
2022-11-16T13:17:38.532Z,97172.59
2022-11-16T13:20:14.919Z,97186.66
2022-11-16T13:22:51.581Z,97187.34
2022-11-16T13:25:43.586Z,97194.44
2022-11-16T13:28:38.219Z,97191.94
2022-11-16T13:31:23.528Z,97191.53
2022-11-16T13:34:01.912Z,97193.00
2022-11-16T13:36:45.442Z,97193.84
2022-11-16T13:39:23.120Z,97186.16
2022-11-16T13:42:06.596Z,97196.00
2022-11-16T13:44:33.984Z,97199.72
2022-11-16T13:47:05.020Z,97203.91
2022-11-16T13:49:48.075Z,97210.16
2022-11-16T13:52:23.892Z,97201.41
2022-11-16T13:54:55.413Z,97202.81
2022-11-16T13:57:29.649Z,97205.34
2022-11-16T14:00:02.263Z,97208.09
2022-11-16T14:02:41.774Z,97211.47
2022-11-16T14:05:38.578Z,97218.31
2022-11-16T14:08:37.160Z,97223.69
2022-11-16T14:11:05.831Z,97217.34
2022-11-16T14:13:41.889Z,97209.19
2022-11-16T14:16:29.033Z,97226.47
2022-11-16T14:19:00.043Z,97208.34
2022-11-16T14:21:32.715Z,97224.19
2022-11-16T14:24:20.756Z,97228.88
2022-11-16T14:27:00.883Z,97233.41
2022-11-16T14:30:07.968Z,97230.63
2022-11-16T14:32:43.344Z,97205.97
2022-11-16T14:35:38.618Z,97227.91
2022-11-16T14:38:32.992Z,97219.97
2022-11-16T14:41:02.800Z,97213.72
2022-11-16T14:43:56.985Z,97205.22
2022-11-16T14:46:30.474Z,97208.09
2022-11-16T14:48:59.268Z,97196.72
2022-11-16T14:51:32.879Z,97203.19
2022-11-16T14:54:05.121Z,97200.78
2022-11-16T14:56:31.829Z,97210.75
2022-11-16T14:59:00.604Z,97197.66
2022-11-16T15:01:39.755Z,97193.13
2022-11-16T15:04:09.588Z,97187.84
2022-11-16T15:07:02.604Z,97192.97
2022-11-16T15:09:39.182Z,97183.41
2022-11-16T15:12:32.381Z,97186.03
2022-11-16T15:15:06.645Z,97184.47
2022-11-16T15:17:34.666Z,97186.28
2022-11-16T15:20:13.335Z,97177.97
2022-11-16T15:22:41.965Z,97185.31
2022-11-16T15:25:24.165Z,97194.16
2022-11-16T15:27:51.053Z,97178.94
2022-11-16T15:30:27.167Z,97180.34
2022-11-16T15:32:54.855Z,97177.94
2022-11-16T15:35:30.441Z,97170.38
2022-11-16T15:38:02.293Z,97161.78
2022-11-16T15:40:30.414Z,97167.88
2022-11-16T15:43:00.222Z,97173.16
2022-11-16T15:45:28.017Z,97157.94
2022-11-16T15:47:56.783Z,97153.16
2022-11-16T15:50:23.686Z,97153.06
2022-11-16T15:52:55.441Z,97142.38
2022-11-16T15:55:38.925Z,97125.97
2022-11-16T15:58:11.698Z,97134.59
2022-11-16T16:00:38.718Z,97136.84
2022-11-16T16:03:23.200Z,97130.00
2022-11-16T16:05:50.979Z,97127.63
2022-11-16T16:08:38.351Z,97126.16
2022-11-16T16:11:30.040Z,97109.75
2022-11-16T16:14:03.054Z,97126.28
2022-11-16T16:16:37.664Z,97135.16
2022-11-16T16:19:23.308Z,97120.88
2022-11-16T16:21:50.418Z,97115.72
2022-11-16T16:24:43.420Z,97107.19
2022-11-16T16:27:22.610Z,97109.94
2022-11-16T16:29:51.176Z,97125.75
2022-11-16T16:32:23.980Z,97124.69
2022-11-16T16:34:51.871Z,97117.97
2022-11-16T16:37:18.825Z,97115.00
2022-11-16T16:39:45.580Z,97125.53
2022-11-16T16:42:15.014Z,97125.03
2022-11-16T16:44:42.920Z,97135.47
2022-11-16T16:47:13.715Z,97138.72
2022-11-16T16:49:41.379Z,97141.25
2022-11-16T16:52:11.320Z,97145.78
2022-11-16T16:54:38.063Z,97146.63
2022-11-16T16:57:05.083Z,97150.91
2022-11-16T16:59:31.818Z,97141.56
2022-11-16T17:01:59.088Z,97143.88
2022-11-16T17:04:25.924Z,97149.00
2022-11-16T17:06:53.422Z,97146.28
2022-11-16T17:09:20.341Z,97142.69
2022-11-16T17:11:47.729Z,97142.44
2022-11-16T17:14:14.508Z,97145.31
2022-11-16T17:16:41.298Z,97145.69
2022-11-16T17:19:08.010Z,97141.38
2022-11-16T17:21:34.705Z,97137.81
2022-11-16T17:24:01.502Z,97140.31
2022-11-16T17:26:29.627Z,97132.63
2022-11-16T17:29:00.799Z,97145.47
2022-11-16T17:31:31.461Z,97149.88
2022-11-16T17:33:59.561Z,97154.53
2022-11-16T17:36:26.184Z,97160.66
2022-11-16T17:38:52.907Z,97159.94
2022-11-16T17:41:21.956Z,97156.56
2022-11-16T17:43:51.748Z,97148.69
2022-11-16T17:46:20.392Z,97129.75
2022-11-16T17:48:47.919Z,97133.94
2022-11-16T17:51:18.176Z,97147.22
2022-11-16T17:53:45.049Z,97150.06
2022-11-16T17:56:13.303Z,97138.13
2022-11-16T17:58:40.646Z,97142.66
2022-11-16T18:01:07.397Z,97133.00
2022-11-16T18:03:38.217Z,97144.88
2022-11-16T18:06:13.233Z,97145.25
2022-11-16T18:08:41.108Z,97144.63
2022-11-16T18:11:17.864Z,97138.38
2022-11-16T18:13:45.261Z,97147.34
2022-11-16T18:16:18.868Z,97151.03
2022-11-16T18:18:47.067Z,97152.44
2022-11-16T18:21:20.435Z,97146.66
2022-11-16T18:23:48.208Z,97142.44
2022-11-16T18:26:16.489Z,97142.69
2022-11-16T18:28:49.428Z,97133.97
2022-11-16T18:31:18.365Z,97130.34
2022-11-16T18:33:45.055Z,97133.22
2022-11-16T18:36:13.190Z,97126.00
2022-11-16T18:38:39.935Z,97131.28
2022-11-16T18:41:06.672Z,97126.22
2022-11-16T18:43:34.580Z,97121.41
2022-11-16T18:46:09.591Z,97101.47
2022-11-16T18:48:44.681Z,97119.78
2022-11-16T18:51:13.517Z,97107.91
2022-11-16T18:53:41.109Z,97109.19
2022-11-16T18:56:08.828Z,97113.75
2022-11-16T18:58:52.660Z,97114.84
2022-11-16T19:01:22.723Z,97110.03
2022-11-16T19:03:50.634Z,97106.69
2022-11-16T19:06:18.497Z,97105.72
2022-11-16T19:08:51.752Z,97108.34
2022-11-16T19:11:23.053Z,97110.03
2022-11-16T19:13:53.814Z,97098.78
2022-11-16T19:16:20.540Z,97101.81
2022-11-16T19:18:47.530Z,97087.81
2022-11-16T19:21:18.379Z,97096.53
2022-11-16T19:23:47.243Z,97099.63
2022-11-16T19:26:16.275Z,97094.59
2022-11-16T19:28:45.237Z,97091.22
2022-11-16T19:31:14.942Z,97075.66
2022-11-16T19:33:42.635Z,97081.53
2022-11-16T19:36:11.423Z,97073.16
2022-11-16T19:38:38.995Z,97083.34
2022-11-16T19:41:06.849Z,97089.44
2022-11-16T19:43:34.373Z,97089.78
2022-11-16T19:46:03.551Z,97089.56
2022-11-16T19:48:32.208Z,97098.28
2022-11-16T19:51:16.268Z,97090.59
2022-11-16T19:53:43.420Z,97092.78
2022-11-16T19:56:10.928Z,97094.50
2022-11-16T19:58:38.569Z,97095.41
2022-11-16T20:01:15.839Z,97093.34
2022-11-16T20:03:43.067Z,97088.94
2022-11-16T20:06:17.016Z,97092.50
2022-11-16T20:08:51.361Z,97092.63
2022-11-16T20:11:25.921Z,97084.00
2022-11-16T20:13:54.930Z,97084.53
2022-11-16T20:16:25.289Z,97082.63
2022-11-16T20:18:53.244Z,97086.19
2022-11-16T20:21:25.895Z,97090.00
2022-11-16T20:23:53.336Z,97096.63
2022-11-16T20:26:29.677Z,97088.97
2022-11-16T20:29:00.238Z,97085.28
2022-11-16T20:31:30.225Z,97081.81
2022-11-16T20:33:58.012Z,97087.06
2022-11-16T20:36:26.903Z,97087.06
2022-11-16T20:38:54.319Z,97087.06
2022-11-16T20:41:23.632Z,97094.00
2022-11-16T20:43:52.474Z,97083.94
2022-11-16T20:46:20.977Z,97096.84
2022-11-16T20:48:47.992Z,97083.72
2022-11-16T20:51:17.330Z,97080.13
2022-11-16T20:53:45.544Z,97066.47
2022-11-16T20:56:13.724Z,97080.94
2022-11-16T20:58:40.735Z,97071.41
2022-11-16T21:01:12.047Z,97076.44
2022-11-16T21:03:39.832Z,97073.72
2022-11-16T21:06:09.768Z,97064.88
2022-11-16T21:08:37.669Z,97063.19
2022-11-16T21:11:16.630Z,97077.91
2022-11-16T21:14:03.716Z,97068.22
2022-11-16T21:16:31.519Z,97060.66
2022-11-16T21:18:58.301Z,97064.78
2022-11-16T21:21:30.437Z,97064.03
2022-11-16T21:24:02.417Z,97061.41
2022-11-16T21:26:31.409Z,97048.56
2022-11-16T21:28:59.504Z,97045.72
2022-11-16T21:31:29.855Z,97043.97
2022-11-16T21:33:57.529Z,97040.47
2022-11-16T21:36:26.724Z,97050.06
2022-11-16T21:38:54.228Z,97057.81
2022-11-16T21:41:22.836Z,97050.81
2022-11-16T21:43:49.790Z,97077.50
2022-11-16T21:46:19.108Z,97073.19
2022-11-16T21:48:51.136Z,97063.75
2022-11-16T21:51:20.093Z,97049.75
2022-11-16T21:53:47.460Z,97048.28
2022-11-16T21:56:18.775Z,97046.94
2022-11-16T21:58:46.349Z,97048.00
2022-11-16T22:01:16.028Z,97051.78
2022-11-16T22:03:43.271Z,97048.88
2022-11-16T22:06:32.160Z,97069.22
2022-11-16T22:08:59.506Z,97072.22
2022-11-16T22:11:26.219Z,97060.00
2022-11-16T22:13:53.049Z,97073.03
2022-11-16T22:16:21.416Z,97077.56
2022-11-16T22:18:48.124Z,97075.34
2022-11-16T22:21:14.891Z,97081.22
2022-11-16T22:23:42.003Z,97077.84
2022-11-16T22:26:10.963Z,97075.66
2022-11-16T22:28:39.031Z,97080.50
2022-11-16T22:31:09.420Z,97078.28
2022-11-16T22:33:36.425Z,97075.25
2022-11-16T22:36:03.824Z,97086.25
2022-11-16T22:38:31.011Z,97096.13
2022-11-16T22:40:57.697Z,97107.00
2022-11-16T22:43:26.686Z,97097.00
2022-11-16T22:45:58.560Z,97089.34
2022-11-16T22:48:32.573Z,97095.41
2022-11-16T22:51:06.874Z,97093.53
2022-11-16T22:53:34.942Z,97089.56
2022-11-16T22:56:10.162Z,97077.22
2022-11-16T22:58:38.416Z,97077.31
2022-11-16T23:01:07.345Z,97069.63
2022-11-16T23:03:35.542Z,97064.97
2022-11-16T23:06:02.836Z,97080.84
2022-11-16T23:08:30.064Z,97080.84
2022-11-16T23:11:22.380Z,97083.25
2022-11-16T23:14:07.711Z,97087.53
2022-11-16T23:16:35.397Z,97082.28
2022-11-16T23:19:02.224Z,97081.16
2022-11-16T23:21:47.383Z,97087.38
2022-11-16T23:24:33.599Z,97094.19
2022-11-16T23:27:22.394Z,97090.03
2022-11-16T23:29:49.590Z,97093.50
2022-11-16T23:32:16.294Z,97092.78
2022-11-16T23:34:42.991Z,97094.44
2022-11-16T23:37:09.775Z,97090.78
2022-11-16T23:39:36.479Z,97080.50
2022-11-16T23:42:21.701Z,97097.81
2022-11-16T23:44:48.414Z,97095.28
2022-11-16T23:47:15.163Z,97094.25
2022-11-16T23:49:41.966Z,97101.91
2022-11-16T23:52:08.776Z,97094.91
2022-11-16T23:54:35.511Z,97095.53
2022-11-16T23:57:02.410Z,97070.44
2022-11-16T23:59:29.114Z,97074.16
